Falmouth, Maine
Current Conditions -  °F | °C
As of 7:51 AM on Monday 20 Oct 2014 (Local Time) from KPWM Reporting Station
Broken Clouds Broken Clouds  
Wind Chill: 39°   Ceiling: 15000
Heat Index: 39°   Visibility: 10mi
Dew Point: 29°   Wind: 3mph
Humidity: 67%   Direction: 240°WSW
Pressure: 29.98"   Gusts: NA
Location:  43.73°N, 70.24°W
Report Text: KPWM 201151Z 24003KT 10SM FEW050 BKN150 04/M02 A2998 RMK AO2 SLP152 T00391017 10067 20017 53013
Loading
Personal Weather Stations






























Interactive Weather Map New forecast layout! Learn more

10-Day Weather Forecast

Advertisements
Track Severe Weather on mobile